Anna Noli — IZEL — position and weather

sailwx.info

Track history (hours):
 
Tides and Currents Weather Stations Pressure Air Temp Water Temp Dewpoint Dewpoint Depression Visibility Wind Speed Wind Dir Waves Ship Positions

Anna Noli

Last reported at 2014-Oct-01 21:32 UTC. Time now 2014-Oct-01 22:33 UTC.
Position N 44°19' E 008°30'.

Length 32 m.

Type: Tug. MMSI: 247046500.

Date/timePositionNaut miles runAvg speedWind from/ knotsBaromVisibWave heightAir tempDewpointWater temp
2014-Oct-01 21:32N 44°19' E 008°30'0 0.3
2014-Oct-01 20:16N 44°18' E 008°29'0 0.0
2014-Oct-01 19:28N 44°18' E 008°29'0 0.0
2014-Oct-01 18:28N 44°18' E 008°29'0 0.0
2014-Oct-01 16:19N 44°18' E 008°29'0 0.0
2014-Oct-01 15:22N 44°18' E 008°29'0 0.0
2014-Oct-01 14:31N 44°18' E 008°29'0 0.0
2014-Oct-01 13:19N 44°18' E 008°29'0 0.0
2014-Oct-01 09:25N 44°18' E 008°29'0 0.0
2014-Oct-01 08:19N 44°18' E 008°29'0 0.0
2014-Oct-01 03:25N 44°18' E 008°29'0 0.0
2014-Oct-01 02:29N 44°19' E 008°29'3 2.9
2014-Oct-01 01:29N 44°16' E 008°27'2 1.6
2014-Oct-01 00:33N 44°17' E 008°29'2 2.1
2014-Sep-30 23:33N 44°19' E 008°30'1 0.7
2014-Sep-30 22:31N 44°18' E 008°29'0 0.0
2014-Sep-30 20:04N 44°18' E 008°29'0 0.0
2014-Sep-30 19:22N 44°18' E 008°29'0 0.0
2014-Sep-30 16:04N 44°18' E 008°29'0 0.0
2014-Sep-30 15:25N 44°18' E 008°29'1 0.8
2014-Sep-30 14:17N 44°19' E 008°30'1 0.3
2014-Sep-30 11:27N 44°18' E 008°29'0 0.0
2014-Sep-30 07:33N 44°18' E 008°29'0 0.0
2014-Sep-30 06:33N 44°18' E 008°29'0 0.0
2014-Sep-30 03:27N 44°18' E 008°29'0 0.0
2014-Sep-30 02:33N 44°18' E 008°29'0 0.0
2014-Sep-30 01:30N 44°18' E 008°29'0 0.0
2014-Sep-30 00:33N 44°18' E 008°29'0 0.0
2014-Sep-29 23:27N 44°18' E 008°29'0 0.0
2014-Sep-29 22:33N 44°18' E 008°29'0 0.0
2014-Sep-29 20:12N 44°18' E 008°29'0 0.0
2014-Sep-29 19:15N 44°18' E 008°29'0 0.5
2014-Sep-29 18:32N 44°19' E 008°30'0 0.1
2014-Sep-29 15:25N 44°18' E 008°29'0 0.0
2014-Sep-29 11:31N 44°18' E 008°29'0 0.0
2014-Sep-29 08:19N 44°18' E 008°29'0 0.4
2014-Sep-29 07:23N 44°19' E 008°30'1 0.6
2014-Sep-29 06:30N 44°19' E 008°31'4 3.1
2014-Sep-29 05:21N 44°16' E 008°27'4 3.6
2014-Sep-29 04:24N 44°19' E 008°30'1 0.9
2014-Sep-29 03:29N 44°18' E 008°29'0 0.0
2014-Sep-29 02:23N 44°18' E 008°29'0 0.0
2014-Sep-29 01:32N 44°18' E 008°29'0 0.0
2014-Sep-29 00:32N 44°18' E 008°29'0 0.0
2014-Sep-28 23:26N 44°18' E 008°29'0 0.0
2014-Sep-28 22:32N 44°18' E 008°29'0 0.0
2014-Sep-28 21:14N 44°18' E 008°29'0 0.0
2014-Sep-28 20:14N 44°18' E 008°29'0 0.0
2014-Sep-28 19:23N 44°18' E 008°29'0 0.0
2014-Sep-28 15:20N 44°18' E 008°29'0 0.0
2014-Sep-28 08:26N 44°18' E 008°29'0 0.0
2014-Sep-28 07:26N 44°18' E 008°29'0 0.0
2014-Sep-28 05:26N 44°18' E 008°29'0 0.0
2014-Sep-28 04:20N 44°18' E 008°29'0 0.0
2014-Sep-28 03:32N 44°18' E 008°29'0 0.0
2014-Sep-28 02:26N 44°18' E 008°29'0 0.0
2014-Sep-28 01:26N 44°18' E 008°29'0 0.0
2014-Sep-28 00:23N 44°18' E 008°29'0 0.0
2014-Sep-27 23:20N 44°18' E 008°29'0 0.0
2014-Sep-27 22:26N 44°18' E 008°29'0 0.0
2014-Sep-27 21:14N 44°18' E 008°29'0 0.0
2014-Sep-27 20:32N 44°18' E 008°29'0 0.0
2014-Sep-27 19:29N 44°18' E 008°29'0 0.0
2014-Sep-27 18:32N 44°18' E 008°29'0 0.0
2014-Sep-27 16:17N 44°18' E 008°29'0 0.0
2014-Sep-27 11:20N 44°18' E 008°29'0 0.0
2014-Sep-27 08:05N 44°18' E 008°29'0 0.6
2014-Sep-27 07:32N 44°19' E 008°30'0 0.1
2014-Sep-27 03:26N 44°18' E 008°29'0 0.0
2014-Sep-27 02:29N 44°18' E 008°29'0 0.0
2014-Sep-27 01:29N 44°18' E 008°29'0 0.0
2014-Sep-27 00:32N 44°18' E 008°29'0 0.0
2014-Sep-26 23:14N 44°18' E 008°29'0 0.0
2014-Sep-26 22:32N 44°18' E 008°29'0 0.0
2014-Sep-26 19:29N 44°18' E 008°29'0 0.0
2014-Sep-26 18:32N 44°18' E 008°29'0 0.0
2014-Sep-26 15:29N 44°18' E 008°29'0 0.0
2014-Sep-26 07:32N 44°18' E 008°29'0 0.1
2014-Sep-26 06:10N 44°19' E 008°29'3 4.9
2014-Sep-26 05:33N 44°16' E 008°27'3 3.2
2014-Sep-26 04:31N 44°19' E 008°30'0 0.4
2014-Sep-26 03:20N 44°18' E 008°29'0 0.0
2014-Sep-26 01:26N 44°18' E 008°29'0 0.0
2014-Sep-26 00:29N 44°18' E 008°29'0 0.0
2014-Sep-25 23:26N 44°18' E 008°29'0 0.0
2014-Sep-25 20:05N 44°18' E 008°29'0 0.0
2014-Sep-25 19:26N 44°18' E 008°29'0 0.0
2014-Sep-25 16:23N 44°18' E 008°29'0 0.0
2014-Sep-25 15:32N 44°18' E 008°29'0 0.1
2014-Sep-25 11:33N 44°19' E 008°30'0 0.2
2014-Sep-25 09:31N 44°19' E 008°29'2 1.1
2014-Sep-25 07:30N 44°17' E 008°28'1 1.4
2014-Sep-25 06:32N 44°17' E 008°29'1 1.0
2014-Sep-25 05:16N 44°18' E 008°29'0 0.0
2014-Sep-25 04:22N 44°18' E 008°29'0 0.0
2014-Sep-25 03:31N 44°18' E 008°29'0 0.0
2014-Sep-25 02:31N 44°18' E 008°29'0 0.0
2014-Sep-25 01:31N 44°18' E 008°29'0 0.0
2014-Sep-25 00:28N 44°18' E 008°29'0 0.0
2014-Sep-24 23:31N 44°18' E 008°29'0 0.0
2014-Sep-24 20:10N 44°18' E 008°29'0 0.0
2014-Sep-24 19:28N 44°18' E 008°29'0 0.0
2014-Sep-24 18:31N 44°18' E 008°29'0 0.0
2014-Sep-24 16:04N 44°18' E 008°29'0 0.0
2014-Sep-24 15:28N 44°18' E 008°29'0 0.0
2014-Sep-24 14:28N 44°18' E 008°29'0 0.0
2014-Sep-24 11:13N 44°18' E 008°29'0 0.0
2014-Sep-24 07:31N 44°18' E 008°29'0 0.0
2014-Sep-24 06:13N 44°18' E 008°29'1 0.3
2014-Sep-24 04:15N 44°19' E 008°30'1 0.8
2014-Sep-24 03:31N 44°18' E 008°29'0 0.0
2014-Sep-24 02:28N 44°18' E 008°29'0 0.0
2014-Sep-24 01:31N 44°18' E 008°29'0 0.0
2014-Sep-24 00:31N 44°18' E 008°29'0 0.0
2014-Sep-23 23:31N 44°18' E 008°29'0 0.0
2014-Sep-23 22:31N 44°18' E 008°29'0 0.0
2014-Sep-23 19:31N 44°18' E 008°29'0 0.0
2014-Sep-23 18:19N 44°18' E 008°29'3 1.6
2014-Sep-23 16:28N 44°16' E 008°27'1 0.9
2014-Sep-23 15:33N 44°16' E 008°28'2 2.0
2014-Sep-23 14:25N 44°18' E 008°29'0 0.0
2014-Sep-23 13:31N 44°18' E 008°29'0 0.0
2014-Sep-23 11:25N 44°18' E 008°29'0 0.0
2014-Sep-23 10:28N 44°18' E 008°29'1 0.3
2014-Sep-23 08:16N 44°19' E 008°30'0 0.3
2014-Sep-23 07:33N 44°19' E 008°30'1 0.7
2014-Sep-23 06:32N 44°19' E 008°31'2 1.7
2014-Sep-23 05:32N 44°17' E 008°29'2 1.7
2014-Sep-23 04:33N 44°16' E 008°28'3 2.5
2014-Sep-23 03:31N 44°18' E 008°29'0 0.0
2014-Sep-23 02:22N 44°18' E 008°29'0 0.0
2014-Sep-23 01:31N 44°18' E 008°29'0 0.0
2014-Sep-23 00:13N 44°18' E 008°29'0 0.0
2014-Sep-22 23:28N 44°18' E 008°29'0 0.0
2014-Sep-22 22:25N 44°18' E 008°29'0 0.0
2014-Sep-22 19:31N 44°18' E 008°29'0 0.0
2014-Sep-22 18:25N 44°18' E 008°29'0 0.0
2014-Sep-22 17:13N 44°18' E 008°29'0 0.0
2014-Sep-22 16:31N 44°18' E 008°29'0 0.0
2014-Sep-22 15:31N 44°18' E 008°29'0 0.0
2014-Sep-22 14:31N 44°18' E 008°29'0 0.0
2014-Sep-22 13:28N 44°18' E 008°29'0 0.0
2014-Sep-22 12:31N 44°18' E 008°29'0 0.0
2014-Sep-22 11:31N 44°18' E 008°29'0 0.0
2014-Sep-22 10:25N 44°18' E 008°29'0 0.0
2014-Sep-22 08:04N 44°18' E 008°29'0 0.0
2014-Sep-22 07:28N 44°18' E 008°29'0 0.0
2014-Sep-22 06:31N 44°18' E 008°29'0 0.0
2014-Sep-22 05:16N 44°18' E 008°29'3 3.3
2014-Sep-22 04:20N 44°16' E 008°27'4 5.0
2014-Sep-22 03:33N 44°19' E 008°30'1 0.7
2014-Sep-22 02:23N 44°18' E 008°29'0 0.0
2014-Sep-22 01:32N 44°18' E 008°29'0 0.0
2014-Sep-22 00:17N 44°18' E 008°29'0 0.0
2014-Sep-21 23:29N 44°18' E 008°29'0 0.0
2014-Sep-21 22:29N 44°18' E 008°29'  
Track history (hours):
 
Tides and Currents Weather Stations Pressure Air Temp Water Temp Dewpoint Dewpoint Depression Visibility Wind Speed Wind Dir Waves Ship Positions

Anna Noli

Last reported at 2014-Oct-01 21:32 UTC. Time now 2014-Oct-01 22:33 UTC.
Position N 44°19' E 008°30'.

Length 32 m.

Type: Tug. MMSI: 247046500.

Date/timePositionNaut miles runAvg speedWind from/ knotsBaromVisibWave heightAir tempDewpointWater temp
2014-Oct-01 21:32N 44°19' E 008°30'0 0.3
2014-Oct-01 20:16N 44°18' E 008°29'0 0.0
2014-Oct-01 19:28N 44°18' E 008°29'0 0.0
2014-Oct-01 18:28N 44°18' E 008°29'0 0.0
2014-Oct-01 16:19N 44°18' E 008°29'0 0.0
2014-Oct-01 15:22N 44°18' E 008°29'0 0.0
2014-Oct-01 14:31N 44°18' E 008°29'0 0.0
2014-Oct-01 13:19N 44°18' E 008°29'0 0.0
2014-Oct-01 09:25N 44°18' E 008°29'0 0.0
2014-Oct-01 08:19N 44°18' E 008°29'0 0.0
2014-Oct-01 03:25N 44°18' E 008°29'0 0.0
2014-Oct-01 02:29N 44°19' E 008°29'3 2.9
2014-Oct-01 01:29N 44°16' E 008°27'2 1.6
2014-Oct-01 00:33N 44°17' E 008°29'2 2.1
2014-Sep-30 23:33N 44°19' E 008°30'1 0.7
2014-Sep-30 22:31N 44°18' E 008°29'0 0.0
2014-Sep-30 20:04N 44°18' E 008°29'0 0.0
2014-Sep-30 19:22N 44°18' E 008°29'0 0.0
2014-Sep-30 16:04N 44°18' E 008°29'0 0.0
2014-Sep-30 15:25N 44°18' E 008°29'1 0.8
2014-Sep-30 14:17N 44°19' E 008°30'1 0.3
2014-Sep-30 11:27N 44°18' E 008°29'0 0.0
2014-Sep-30 07:33N 44°18' E 008°29'0 0.0
2014-Sep-30 06:33N 44°18' E 008°29'0 0.0
2014-Sep-30 03:27N 44°18' E 008°29'0 0.0
2014-Sep-30 02:33N 44°18' E 008°29'0 0.0
2014-Sep-30 01:30N 44°18' E 008°29'0 0.0
2014-Sep-30 00:33N 44°18' E 008°29'0 0.0
2014-Sep-29 23:27N 44°18' E 008°29'0 0.0
2014-Sep-29 22:33N 44°18' E 008°29'0 0.0
2014-Sep-29 20:12N 44°18' E 008°29'0 0.0
2014-Sep-29 19:15N 44°18' E 008°29'0 0.5
2014-Sep-29 18:32N 44°19' E 008°30'0 0.1
2014-Sep-29 15:25N 44°18' E 008°29'0 0.0
2014-Sep-29 11:31N 44°18' E 008°29'0 0.0
2014-Sep-29 08:19N 44°18' E 008°29'0 0.4
2014-Sep-29 07:23N 44°19' E 008°30'1 0.6
2014-Sep-29 06:30N 44°19' E 008°31'4 3.1
2014-Sep-29 05:21N 44°16' E 008°27'4 3.6
2014-Sep-29 04:24N 44°19' E 008°30'1 0.9
2014-Sep-29 03:29N 44°18' E 008°29'0 0.0
2014-Sep-29 02:23N 44°18' E 008°29'0 0.0
2014-Sep-29 01:32N 44°18' E 008°29'0 0.0
2014-Sep-29 00:32N 44°18' E 008°29'0 0.0
2014-Sep-28 23:26N 44°18' E 008°29'0 0.0
2014-Sep-28 22:32N 44°18' E 008°29'0 0.0
2014-Sep-28 21:14N 44°18' E 008°29'0 0.0
2014-Sep-28 20:14N 44°18' E 008°29'0 0.0
2014-Sep-28 19:23N 44°18' E 008°29'0 0.0
2014-Sep-28 15:20N 44°18' E 008°29'0 0.0
2014-Sep-28 08:26N 44°18' E 008°29'0 0.0
2014-Sep-28 07:26N 44°18' E 008°29'0 0.0
2014-Sep-28 05:26N 44°18' E 008°29'0 0.0
2014-Sep-28 04:20N 44°18' E 008°29'0 0.0
2014-Sep-28 03:32N 44°18' E 008°29'0 0.0
2014-Sep-28 02:26N 44°18' E 008°29'0 0.0
2014-Sep-28 01:26N 44°18' E 008°29'0 0.0
2014-Sep-28 00:23N 44°18' E 008°29'0 0.0
2014-Sep-27 23:20N 44°18' E 008°29'0 0.0
2014-Sep-27 22:26N 44°18' E 008°29'0 0.0
2014-Sep-27 21:14N 44°18' E 008°29'0 0.0
2014-Sep-27 20:32N 44°18' E 008°29'0 0.0
2014-Sep-27 19:29N 44°18' E 008°29'0 0.0
2014-Sep-27 18:32N 44°18' E 008°29'0 0.0
2014-Sep-27 16:17N 44°18' E 008°29'0 0.0
2014-Sep-27 11:20N 44°18' E 008°29'0 0.0
2014-Sep-27 08:05N 44°18' E 008°29'0 0.6
2014-Sep-27 07:32N 44°19' E 008°30'0 0.1
2014-Sep-27 03:26N 44°18' E 008°29'0 0.0
2014-Sep-27 02:29N 44°18' E 008°29'0 0.0
2014-Sep-27 01:29N 44°18' E 008°29'0 0.0
2014-Sep-27 00:32N 44°18' E 008°29'0 0.0
2014-Sep-26 23:14N 44°18' E 008°29'0 0.0
2014-Sep-26 22:32N 44°18' E 008°29'0 0.0
2014-Sep-26 19:29N 44°18' E 008°29'0 0.0
2014-Sep-26 18:32N 44°18' E 008°29'0 0.0
2014-Sep-26 15:29N 44°18' E 008°29'0 0.0
2014-Sep-26 07:32N 44°18' E 008°29'0 0.1
2014-Sep-26 06:10N 44°19' E 008°29'3 4.9
2014-Sep-26 05:33N 44°16' E 008°27'3 3.2
2014-Sep-26 04:31N 44°19' E 008°30'0 0.4
2014-Sep-26 03:20N 44°18' E 008°29'0 0.0
2014-Sep-26 01:26N 44°18' E 008°29'0 0.0
2014-Sep-26 00:29N 44°18' E 008°29'0 0.0
2014-Sep-25 23:26N 44°18' E 008°29'0 0.0
2014-Sep-25 20:05N 44°18' E 008°29'0 0.0
2014-Sep-25 19:26N 44°18' E 008°29'0 0.0
2014-Sep-25 16:23N 44°18' E 008°29'0 0.0
2014-Sep-25 15:32N 44°18' E 008°29'0 0.1
2014-Sep-25 11:33N 44°19' E 008°30'0 0.2
2014-Sep-25 09:31N 44°19' E 008°29'2 1.1
2014-Sep-25 07:30N 44°17' E 008°28'1 1.4
2014-Sep-25 06:32N 44°17' E 008°29'1 1.0
2014-Sep-25 05:16N 44°18' E 008°29'0 0.0
2014-Sep-25 04:22N 44°18' E 008°29'0 0.0
2014-Sep-25 03:31N 44°18' E 008°29'0 0.0
2014-Sep-25 02:31N 44°18' E 008°29'0 0.0
2014-Sep-25 01:31N 44°18' E 008°29'0 0.0
2014-Sep-25 00:28N 44°18' E 008°29'0 0.0
2014-Sep-24 23:31N 44°18' E 008°29'0 0.0
2014-Sep-24 20:10N 44°18' E 008°29'0 0.0
2014-Sep-24 19:28N 44°18' E 008°29'0 0.0
2014-Sep-24 18:31N 44°18' E 008°29'0 0.0
2014-Sep-24 16:04N 44°18' E 008°29'0 0.0
2014-Sep-24 15:28N 44°18' E 008°29'0 0.0
2014-Sep-24 14:28N 44°18' E 008°29'0 0.0
2014-Sep-24 11:13N 44°18' E 008°29'0 0.0
2014-Sep-24 07:31N 44°18' E 008°29'0 0.0
2014-Sep-24 06:13N 44°18' E 008°29'1 0.3
2014-Sep-24 04:15N 44°19' E 008°30'1 0.8
2014-Sep-24 03:31N 44°18' E 008°29'0 0.0
2014-Sep-24 02:28N 44°18' E 008°29'0 0.0
2014-Sep-24 01:31N 44°18' E 008°29'0 0.0
2014-Sep-24 00:31N 44°18' E 008°29'0 0.0
2014-Sep-23 23:31N 44°18' E 008°29'0 0.0
2014-Sep-23 22:31N 44°18' E 008°29'0 0.0
2014-Sep-23 19:31N 44°18' E 008°29'0 0.0
2014-Sep-23 18:19N 44°18' E 008°29'3 1.6
2014-Sep-23 16:28N 44°16' E 008°27'1 0.9
2014-Sep-23 15:33N 44°16' E 008°28'2 2.0
2014-Sep-23 14:25N 44°18' E 008°29'0 0.0
2014-Sep-23 13:31N 44°18' E 008°29'0 0.0
2014-Sep-23 11:25N 44°18' E 008°29'0 0.0
2014-Sep-23 10:28N 44°18' E 008°29'1 0.3
2014-Sep-23 08:16N 44°19' E 008°30'0 0.3
2014-Sep-23 07:33N 44°19' E 008°30'1 0.7
2014-Sep-23 06:32N 44°19' E 008°31'2 1.7
2014-Sep-23 05:32N 44°17' E 008°29'2 1.7
2014-Sep-23 04:33N 44°16' E 008°28'3 2.5
2014-Sep-23 03:31N 44°18' E 008°29'0 0.0
2014-Sep-23 02:22N 44°18' E 008°29'0 0.0
2014-Sep-23 01:31N 44°18' E 008°29'0 0.0
2014-Sep-23 00:13N 44°18' E 008°29'0 0.0
2014-Sep-22 23:28N 44°18' E 008°29'0 0.0
2014-Sep-22 22:25N 44°18' E 008°29'0 0.0
2014-Sep-22 19:31N 44°18' E 008°29'0 0.0
2014-Sep-22 18:25N 44°18' E 008°29'0 0.0
2014-Sep-22 17:13N 44°18' E 008°29'0 0.0
2014-Sep-22 16:31N 44°18' E 008°29'0 0.0
2014-Sep-22 15:31N 44°18' E 008°29'0 0.0
2014-Sep-22 14:31N 44°18' E 008°29'0 0.0
2014-Sep-22 13:28N 44°18' E 008°29'0 0.0
2014-Sep-22 12:31N 44°18' E 008°29'0 0.0
2014-Sep-22 11:31N 44°18' E 008°29'0 0.0
2014-Sep-22 10:25N 44°18' E 008°29'0 0.0
2014-Sep-22 08:04N 44°18' E 008°29'0 0.0
2014-Sep-22 07:28N 44°18' E 008°29'0 0.0
2014-Sep-22 06:31N 44°18' E 008°29'0 0.0
2014-Sep-22 05:16N 44°18' E 008°29'3 3.3
2014-Sep-22 04:20N 44°16' E 008°27'4 5.0
2014-Sep-22 03:33N 44°19' E 008°30'1 0.7
2014-Sep-22 02:23N 44°18' E 008°29'0 0.0
2014-Sep-22 01:32N 44°18' E 008°29'0 0.0
2014-Sep-22 00:17N 44°18' E 008°29'0 0.0
2014-Sep-21 23:29N 44°18' E 008°29'0 0.0
2014-Sep-21 22:29N 44°18' E 008°29'  

Dump ship's entire track history